Station 45207 - Mentor Harbor Buoy Image indicating link to RSS feed of recent meteorological observations for station 45207


Conditions at 45207 as of
(1:00 am EDT)
0500 GMT on 09/02/2026:
     

Click on the graph icon in the table below to see a time series plot of the last five days of that observation.

5-day plot - Wind Direction Wind Direction (WDIR): S ( 170 deg true )
5-day plot - Wind Speed Wind Speed (WSPD): 3.9 kts
5-day plot - Wind Gust Wind Gust (GST): 5.8 kts
5-day plot - Wave Height Wave Height (WVHT): 1.3 ft
5-day plot - Dominant Wave Period Dominant Wave Period (DPD): 4 sec
5-day plot - Mean Wave Direction Mean Wave Direction (MWD): SW ( 235 deg true )
5-day plot - Air Temperature Air Temperature (ATMP): 77.7 °F
5-day plot - Water Temperature Water Temperature (WTMP): 76.1 °F
5-day plot - Wind Speed at 10 Meters Wind Speed at 10 meters (WSPD10M): 5.8 kts
5-day plot - Wind Speed at 20 Meters Wind Speed at 20 meters (WSPD20M): 5.8 kts
5-day plot -  Wind Speed, Wind Gust and Atmospheric Pressure Combined plot of Wind Speed, Gust, and Air Pressure
Previous observations
TIME
(EDT)
5-day plot - Wind Direction
WDIR
 
5-day plot - Wind Speed
WSPD
kts
5-day plot - Wind Gust
GST
kts
5-day plot - Wave Height
WVHT
ft
5-day plot - Dominant Wave Period
DPD
sec
5-day plot - Average Wave Period
APD
sec
5-day plot - Mean Wave Direction
MWD
 
5-day plot - Atmospheric Pressure
PRES
in
5-day plot - Pressure Tendency
PTDY
in
5-day plot - Air Temperature
ATMP
°F
5-day plot - Water Temperature
WTMP
°F
5-day plot - Dew Point
DEWP
°F
5-day plot - Salinity
SAL
psu
5-day plot - Visibility
VIS
nmi
5-day plot - Tide (above MLLW)
TIDE
ft
2026-09-02 12:50 am S 5.8 7.8 1.6 4- SW-- 77.9 76.1----
2026-09-02 12:40 am S 5.8 7.8 1.6 4-WSW-- 78.3 76.1----
2026-09-02 12:30 amSSW 3.9 7.8 1.6 4-WSW-- 78.4 76.1----
2026-09-02 12:20 am S 5.8 9.7 1.6 3- SW-- 78.3 76.1----
2026-09-02 12:10 am S 7.8 9.7 1.6 4-WSW-- 77.9 76.1----
2026-09-02 12:00 am S 7.8 11.7 1.6 4- SW-- 77.9 76.1----
2026-09-01 11:50 pm S 7.8 11.7 1.6 4- SW-- 77.7 76.1----
2026-09-01 11:40 pm S 7.8 9.7 1.6 4- SW-- 77.5 76.1----
2026-09-01 11:30 pm S 5.8 7.8 1.6 4- SW-- 77.5 76.1----
2026-09-01 11:20 pmSSW 7.8 9.7 1.6 4- SW-- 77.4 76.1----
2026-09-01 11:10 pm S 5.8 7.8 1.6 4- SW-- 76.8 76.1----
2026-09-01 11:00 pm S 3.9 5.8 1.6 4-WSW-- 76.6 76.1----
2026-09-01 10:50 pmSSW 5.8 7.8 1.6 4- SW-- 76.6 76.3----
2026-09-01 10:40 pmSSW 5.8 7.8 1.6 4-WSW-- 76.8 76.1----
2026-09-01 10:30 pmSSW 5.8 7.8 1.6 4- SW-- 77.0 76.1----
2026-09-01 10:20 pmSSW 7.8 9.7 1.6 4- SW-- 77.4 76.1----
2026-09-01 10:10 pmSSW 7.8 9.7 1.6 4-WSW-- 77.7 76.3----
2026-09-01 10:00 pmSSW 7.8 11.7 1.6 4-WSW-- 77.9 76.3----
2026-09-01 09:50 pmSSW 9.7 11.7 1.6 4-WSW-- 78.3 76.3----
2026-09-01 09:40 pmSSW 9.7 11.7 1.6 4-WSW-- 78.8 76.3----
2026-09-01 09:30 pmSSW 9.7 13.6 1.6 4- SW-- 79.0 76.3----
2026-09-01 09:20 pm S 9.7 13.6 1.6 4-WSW-- 79.2 76.3----
2026-09-01 09:10 pm S 11.7 15.5 2.0 4-WSW-- 79.2 76.3----
2026-09-01 09:00 pmSSW 11.7 17.5 1.6 4-WSW-- 79.2 76.3----
2026-09-01 08:50 pmSSW 11.7 13.6 2.0 4-WSW-- 79.0 76.3----
2026-09-01 08:40 pm S 9.7 13.6 1.6 3-WSW-- 78.8 76.3----
2026-09-01 08:30 pm S 9.7 11.7 1.6 3-WSW-- 78.6 76.5----
2026-09-01 08:20 pm S 9.7 11.7 1.6 4-WSW-- 78.3 76.5----
2026-09-01 08:10 pm S 7.8 11.7 1.6 3-WSW-- 78.4 76.5----
2026-09-01 08:00 pmSSW 9.7 11.7 1.6 3- SW-- 78.8 76.5----
2026-09-01 07:50 pm S 9.7 13.6 1.6 3-WSW-- 79.0 76.5----
2026-09-01 07:40 pm S 7.8 11.7 1.6 3-WSW-- 78.8 76.5----
2026-09-01 07:30 pmSSW 9.7 11.7 1.6 4-WSW-- 79.5 76.5----
2026-09-01 07:20 pmSSW 9.7 13.6 1.6 3-WSW-- 79.5 76.5----
2026-09-01 07:10 pmSSW 11.7 15.5 1.3 4-WSW-- 78.8 76.6----
2026-09-01 07:00 pmSSW 9.7 11.7 1.3 3-WSW-- 78.6 76.6----
2026-09-01 06:50 pmSSW 9.7 13.6 1.3 4-WSW-- 78.8 76.6----
2026-09-01 06:40 pmSSW 7.8 11.7 1.3 4-WSW-- 78.8 76.6----
2026-09-01 06:30 pmSSW 7.8 11.7 1.3 4-WSW-- 78.8 76.6----
2026-09-01 06:20 pmSSW 7.8 9.7 1.3 4-WSW-- 78.1 76.8----
2026-09-01 06:10 pm S 3.9 5.8 1.3 4-WSW-- 77.7 76.8----
2026-09-01 06:00 pmSSW 3.9 5.8 1.3 4-WSW-- 78.1 76.8----
2026-09-01 05:50 pmSSW 3.9 5.8 1.3 4-WSW-- 78.4 76.8----
2026-09-01 05:40 pm S 5.8 7.8 1.3 4-WSW-- 78.6 76.8----
2026-09-01 05:30 pmSSW 5.8 7.8 1.6 3-WSW-- 78.6 76.8----
2026-09-01 05:20 pmSSW 5.8 7.8 1.3 3-WSW-- 78.8 76.8----
2026-09-01 05:10 pm SW 7.8 11.7 1.6 4- SW-- 79.0 76.8----
2026-09-01 05:00 pmSSW 5.8 9.7 1.6 4-WSW-- 78.4 76.8----
2026-09-01 04:50 pm S 5.8 7.8 1.3 4- SW-- 78.3 76.8----
2026-09-01 04:40 pm S 5.8 9.7 1.3 4-WSW-- 78.1 76.8----
2026-09-01 04:30 pmSSW 5.8 7.8 1.3 4- SW--- 76.8----
2026-09-01 04:20 pmSSW 5.8 7.8 1.3 4- SW-- 78.1 76.8----
2026-09-01 04:10 pmSSW 5.8 9.7 1.3 4-WSW-- 78.3 76.8----
2026-09-01 04:00 pmSSW 5.8 7.8 1.3 4- SW-- 78.3 76.8----
2026-09-01 03:50 pmSSW 5.8 9.7 1.3 4-WSW-- 78.4 76.6----
2026-09-01 03:40 pmSSW 5.8 9.7 1.3 4-WSW-- 78.6 76.6----
2026-09-01 03:30 pmSSW 5.8 7.8 1.6 4-WSW-- 78.6 76.6----
2026-09-01 03:20 pmSSW 5.8 7.8 1.3 4-WSW-- 78.6 76.6----
2026-09-01 03:10 pm S 5.8 5.8 1.6 4- SW-- 78.3 76.3----
2026-09-01 03:00 pmSSW 3.9 5.8 1.6 4-WSW-- 78.1 76.3----
2026-09-01 02:50 pmSSW 3.9 5.8 1.6 4- SW-- 77.9 76.1----
2026-09-01 02:40 pmSSW 3.9 7.8 1.6 4- SW-- 77.9 76.1----
2026-09-01 02:30 pmSSW 3.9 5.8 1.6 4- SW-- 77.7 76.1----
2026-09-01 02:20 pmSSW 3.9 5.8 1.6 4-WSW-- 77.7 76.1----
2026-09-01 02:10 pmSSW 5.8 7.8 2.0 4-WSW-- 77.9 75.9----
2026-09-01 02:00 pmSSW 5.8 7.8 2.0 4-WSW-- 77.7 75.9----
2026-09-01 01:50 pm S 5.8 7.8 2.0 4-WSW-- 77.4 75.7----
2026-09-01 01:40 pm S 5.8 7.8 2.0 4-WSW-- 77.4 75.7----
2026-09-01 01:30 pmSSW 5.8 9.7 2.0 4-WSW-- 77.4 75.6----
2026-09-01 01:20 pmSSW 7.8 9.7 2.3 4-WSW-- 77.4 75.6----
2026-09-01 01:10 pm SW 7.8 9.7 2.3 4-WSW-- 77.2 75.6----
2026-09-01 01:00 pmSSW 9.7 11.7 2.0 4-WSW-- 77.2 75.4----
2026-09-01 12:50 pmSSW 9.7 11.7 2.0 4-WSW-- 77.2 75.4----
2026-09-01 12:40 pmSSW 9.7 13.6 2.0 4-WSW-- 77.2 75.4----
2026-09-01 12:30 pmSSW 9.7 13.6 2.0 4-WSW-- 77.0 75.4----
2026-09-01 12:20 pmSSW 9.7 13.6 2.3 4-WSW-- 77.0 75.4----
2026-09-01 12:10 pmSSW 9.7 13.6 2.0 4-WSW--- 75.4----
2026-09-01 12:00 pmSSW 9.7 13.6 2.0 4-WSW-- 77.0 75.2----
2026-09-01 11:50 amSSW 9.7 13.6 2.0 3- SW-- 76.8 75.2----
2026-09-01 11:40 amSSW 9.7 11.7 1.6 4-WSW-- 76.8 75.2----
2026-09-01 11:30 amSSW 9.7 11.7 2.0 4-WSW-- 76.8 75.2----
2026-09-01 11:20 amSSW 9.7 13.6 2.0 4-WSW-- 77.0 75.2----
2026-09-01 11:10 amSSW 11.7 15.5 1.6 3-WSW-- 77.2 75.2----
2026-09-01 11:00 amSSW 11.7 13.6 2.0 4-WSW-- 77.4 75.2----
2026-09-01 10:50 amSSW 11.7 13.6 1.6 4-WSW-- 77.4 75.2----
2026-09-01 10:40 amSSW 9.7 13.6 1.6 4-WSW-- 77.2 75.0----
2026-09-01 10:30 amSSW 7.8 11.7 1.6 3-WSW-- 77.2 75.0----
2026-09-01 10:20 amSSW 7.8 11.7 2.0 4-WSW-- 77.2 75.0----
2026-09-01 10:10 amSSW 7.8 11.7 1.6 4-WSW-- 77.2 75.0----
2026-09-01 10:00 amSSW 7.8 11.7 2.0 3- SW-- 77.2 75.0----
2026-09-01 09:50 amSSW 7.8 11.7 2.0 4-WSW-- 77.2 75.0----
2026-09-01 09:40 amSSW 9.7 13.6 2.0 4-WSW-- 77.5 74.8----
2026-09-01 09:30 amSSW 11.7 13.6 1.6 3- SW-- 77.7 74.8----
2026-09-01 09:20 amSSW 11.7 15.5 1.6 4- SW-- 77.9 74.8----
2026-09-01 09:10 amSSW 11.7 13.6 1.6 4- SW-- 77.4 74.8----
2026-09-01 09:00 amSSW 9.7 13.6 1.6 4-WSW-- 77.2 74.8----
2026-09-01 08:50 amSSW 9.7 11.7 1.6 4- SW-- 77.2 74.8----
2026-09-01 08:40 am S 9.7 13.6 2.0 4-WSW-- 77.2 74.8----
2026-09-01 08:30 amSSW 9.7 11.7 1.6 4-WSW-- 77.0 74.8----
2026-09-01 08:20 amSSW 9.7 13.6 2.0 4-WSW-- 77.2 74.8----
2026-09-01 08:10 amSSW 9.7 13.6 1.6 4- SW-- 77.2 74.8----
2026-09-01 08:00 am S 11.7 13.6 1.6 4-WSW-- 77.0 74.8----
2026-09-01 07:50 am S 9.7 13.6 1.6 4- SW-- 77.0 74.8----
2026-09-01 07:40 am S 9.7 11.7 1.3 3- SW-- 77.0 74.8----
2026-09-01 07:30 am S 11.7 15.5 1.3 3- SW-- 77.0 74.8----
2026-09-01 07:20 am S 9.7 13.6 1.3 3- SW-- 77.2 74.8----
2026-09-01 07:10 am S 9.7 13.6 1.3 3- SW-- 77.7 74.8----
2026-09-01 07:00 am S 9.7 13.6 1.3 3- SW-- 78.1 74.8----
2026-09-01 06:50 am S 9.7 13.6 1.3 3- SW-- 78.8 74.8----
2026-09-01 06:40 am S 9.7 13.6 1.3 3- SW-- 78.4 74.8----
2026-09-01 06:30 am S 7.8 11.7 1.3 3- SW-- 78.4 74.8----
2026-09-01 06:20 am S 7.8 9.7 1.3 3- SW-- 78.1 74.8----
2026-09-01 06:10 amSSE 7.8 11.7 1.0 3- SW-- 78.3 74.8----
2026-09-01 06:00 am S 7.8 11.7 1.3 3- SW-- 78.3 74.8----
2026-09-01 05:50 amSSE 7.8 9.7 1.3 3- SW-- 78.1 74.8----
2026-09-01 05:40 amSSE 7.8 11.7 1.3 3- SW-- 78.1 74.8----
2026-09-01 05:30 amSSE 7.8 9.7 1.3 3- SW-- 78.3 74.8----
2026-09-01 05:20 amSSE 9.7 11.7 1.3 3- SW-- 78.4 74.8----
2026-09-01 05:10 amSSE 9.7 13.6 1.3 3- SW-- 78.1 74.8----
2026-09-01 05:00 amSSE 9.7 13.6 1.3 3- SW-- 78.3 74.8----
2026-09-01 04:50 amSSE 9.7 13.6 1.3 3- SW-- 78.4 74.8----
2026-09-01 04:40 amSSE 9.7 13.6 1.0 3- SW-- 78.4 74.8----
2026-09-01 04:30 amSSE 9.7 13.6 1.3 3- SW-- 78.4 74.8----
2026-09-01 04:20 amSSE 9.7 13.6 1.0 3- SW--- 75.0----
2026-09-01 04:10 amSSE 9.7 13.6 1.0 3- SW-- 79.0 75.0----
2026-09-01 04:00 amSSE 9.7 13.6 1.0 3- SW-- 79.3 75.0----
2026-09-01 03:50 amSSE 9.7 13.6 1.0 3- SW-- 79.5 75.0----
2026-09-01 03:40 amSSE 9.7 15.5 1.0 3- SW-- 79.5 75.0----
2026-09-01 03:30 am S 9.7 13.6 1.0 3- SW-- 79.5 75.0----
2026-09-01 03:20 amSSE 9.7 15.5 0.7-- SW-- 79.2 75.0----
2026-09-01 03:10 amSSE 7.8 11.7 0.7-- SW-- 78.8 75.0----
2026-09-01 03:00 amSSE 7.8 9.7 1.0 3- SW--- 75.0----
2026-09-01 02:50 am S 7.8 11.7 1.0 3- SW-- 78.8 75.0----
2026-09-01 02:40 amSSE 9.7 13.6 1.0 3- SW-- 79.0 75.2----
2026-09-01 02:30 amSSE 9.7 13.6 1.0 3- SW-- 78.8 75.2----
2026-09-01 02:20 amSSE 9.7 13.6 1.0 3- SW-- 78.8 75.2----
2026-09-01 02:10 amSSE 9.7 13.6 0.7-- SW-- 78.8 75.2----
2026-09-01 02:00 amSSE 9.7 13.6 0.7-- SW-- 78.6 75.2----
2026-09-01 01:50 amSSE 9.7 13.6 0.7-- SW-- 78.3 75.2----
2026-09-01 01:40 am SE 7.8 11.7 0.7-- SW-- 77.7 75.2----
2026-09-01 01:30 am SE 7.8 9.7 0.7-- SW-- 77.2 75.2----
2026-09-01 01:20 am SE 7.8 11.7 0.7-- SW-- 77.0 75.4----
2026-09-01 01:10 am SE 9.7 11.7 0.7-- SW-- 76.6 75.4----
2026-09-01 01:00 am SE 7.8 11.7 0.7-- SW-- 76.5 75.4----
2026-09-01 12:50 am SE 7.8 11.7 0.7-- SW-- 76.5 75.4----

Wave Summary
for 45207 as of (1:00 am EDT)
0500 GMT on 09/02/2026:

These wave data are displayed in rounded times.

     

Click on the graph icon in the table below to see a time series plot of the last five days of that observation.

5-day plot - Significant Wave Height Significant Wave Height (WVHT): 1.3 ft
Previous observations
TIME
(EDT)
5-day plot - Wave Height
WVHT
ft
5-day plot - Swell Height
SwH
ft
5-day plot - Swell Period
SwP
sec
5-day plot - Swell Direction
SwD
 
5-day plot - Wind Wave Height
WWH
ft
5-day plot - Wind Wave Period
WWP
sec
5-day plot - Wind Wave Direction
WWD
 
5-day plot - Wave Steepness
STEEPNESS
 
5-day plot - Average Wave Period
APD
sec
2026-09-02 12:50 am 1.6------ N/A-
2026-09-02 12:40 am 1.6------ N/A-
2026-09-02 12:30 am 1.6------ N/A-
2026-09-02 12:20 am 1.6------ N/A-
2026-09-02 12:10 am 1.6------ N/A-
2026-09-02 12:00 am 1.6------ N/A-
2026-09-01 11:50 pm 1.6------ N/A-
2026-09-01 11:40 pm 1.6------ N/A-
2026-09-01 11:30 pm 1.6------ N/A-
2026-09-01 11:20 pm 1.6------ N/A-
2026-09-01 11:10 pm 1.6------ N/A-
2026-09-01 11:00 pm 1.6------ N/A-
2026-09-01 10:50 pm 1.6------ N/A-
2026-09-01 10:40 pm 1.6------ N/A-
2026-09-01 10:30 pm 1.6------ N/A-
2026-09-01 10:20 pm 1.6------ N/A-
2026-09-01 10:10 pm 1.6------ N/A-
2026-09-01 10:00 pm 1.6------ N/A-
2026-09-01 09:50 pm 1.6------ N/A-
2026-09-01 09:40 pm 1.6------ N/A-
2026-09-01 09:30 pm 1.6------ N/A-
2026-09-01 09:20 pm 1.6------ N/A-
2026-09-01 09:10 pm 2.0------ N/A-
2026-09-01 09:00 pm 1.6------ N/A-
2026-09-01 08:50 pm 2.0------ N/A-
2026-09-01 08:40 pm 1.6------ N/A-
2026-09-01 08:30 pm 1.6------ N/A-
2026-09-01 08:20 pm 1.6------ N/A-
2026-09-01 08:10 pm 1.6------ N/A-
2026-09-01 08:00 pm 1.6------ N/A-
2026-09-01 07:50 pm 1.6------ N/A-
2026-09-01 07:40 pm 1.6------ N/A-
2026-09-01 07:30 pm 1.6------ N/A-
2026-09-01 07:20 pm 1.6------ N/A-
2026-09-01 07:10 pm 1.3------ N/A-
2026-09-01 07:00 pm 1.3------ N/A-
2026-09-01 06:50 pm 1.3------ N/A-
2026-09-01 06:40 pm 1.3------ N/A-
2026-09-01 06:30 pm 1.3------ N/A-
2026-09-01 06:20 pm 1.3------ N/A-
2026-09-01 06:10 pm 1.3------ N/A-
2026-09-01 06:00 pm 1.3------ N/A-
2026-09-01 05:50 pm 1.3------ N/A-
2026-09-01 05:40 pm 1.3------ N/A-
2026-09-01 05:30 pm 1.6------ N/A-
2026-09-01 05:20 pm 1.3------ N/A-
2026-09-01 05:10 pm 1.6------ N/A-
2026-09-01 05:00 pm 1.6------ N/A-
2026-09-01 04:50 pm 1.3------ N/A-
2026-09-01 04:40 pm 1.3------ N/A-
2026-09-01 04:30 pm 1.3------ N/A-
2026-09-01 04:20 pm 1.3------ N/A-
2026-09-01 04:10 pm 1.3------ N/A-
2026-09-01 04:00 pm 1.3------ N/A-
2026-09-01 03:50 pm 1.3------ N/A-
2026-09-01 03:40 pm 1.3------ N/A-
2026-09-01 03:30 pm 1.6------ N/A-
2026-09-01 03:20 pm 1.3------ N/A-
2026-09-01 03:10 pm 1.6------ N/A-
2026-09-01 03:00 pm 1.6------ N/A-
2026-09-01 02:50 pm 1.6------ N/A-
2026-09-01 02:40 pm 1.6------ N/A-
2026-09-01 02:30 pm 1.6------ N/A-
2026-09-01 02:20 pm 1.6------ N/A-
2026-09-01 02:10 pm 2.0------ N/A-
2026-09-01 02:00 pm 2.0------ N/A-
2026-09-01 01:50 pm 2.0------ N/A-
2026-09-01 01:40 pm 2.0------ N/A-
2026-09-01 01:30 pm 2.0------ N/A-
2026-09-01 01:20 pm 2.3------ N/A-
2026-09-01 01:10 pm 2.3------ N/A-
2026-09-01 01:00 pm 2.0------ N/A-
2026-09-01 12:50 pm 2.0------ N/A-
2026-09-01 12:40 pm 2.0------ N/A-
2026-09-01 12:30 pm 2.0------ N/A-
2026-09-01 12:20 pm 2.3------ N/A-
2026-09-01 12:10 pm 2.0------ N/A-
2026-09-01 12:00 pm 2.0------ N/A-
2026-09-01 11:50 am 2.0------ N/A-
2026-09-01 11:40 am 1.6------ N/A-
2026-09-01 11:30 am 2.0------ N/A-
2026-09-01 11:20 am 2.0------ N/A-
2026-09-01 11:10 am 1.6------ N/A-
2026-09-01 11:00 am 2.0------ N/A-
2026-09-01 10:50 am 1.6------ N/A-
2026-09-01 10:40 am 1.6------ N/A-
2026-09-01 10:30 am 1.6------ N/A-
2026-09-01 10:20 am 2.0------ N/A-
2026-09-01 10:10 am 1.6------ N/A-
2026-09-01 10:00 am 2.0------ N/A-
2026-09-01 09:50 am 2.0------ N/A-
2026-09-01 09:40 am 2.0------ N/A-
2026-09-01 09:30 am 1.6------ N/A-
2026-09-01 09:20 am 1.6------ N/A-
2026-09-01 09:10 am 1.6------ N/A-
2026-09-01 09:00 am 1.6------ N/A-
2026-09-01 08:50 am 1.6------ N/A-
2026-09-01 08:40 am 2.0------ N/A-
2026-09-01 08:30 am 1.6------ N/A-
2026-09-01 08:20 am 2.0------ N/A-
2026-09-01 08:10 am 1.6------ N/A-
2026-09-01 08:00 am 1.6------ N/A-
2026-09-01 07:50 am 1.6------ N/A-
2026-09-01 07:40 am 1.3------ N/A-
2026-09-01 07:30 am 1.3------ N/A-
2026-09-01 07:20 am 1.3------ N/A-
2026-09-01 07:10 am 1.3------ N/A-
2026-09-01 07:00 am 1.3------ N/A-
2026-09-01 06:50 am 1.3------ N/A-
2026-09-01 06:40 am 1.3------ N/A-
2026-09-01 06:30 am 1.0------ N/A-
2026-09-01 06:20 am 1.3------ N/A-
2026-09-01 06:10 am 1.0------ N/A-
2026-09-01 06:00 am 1.3------ N/A-
2026-09-01 05:50 am 1.3------ N/A-
2026-09-01 05:40 am 1.3------ N/A-
2026-09-01 05:30 am 1.3------ N/A-
2026-09-01 05:20 am 1.3------ N/A-
2026-09-01 05:10 am 1.3------ N/A-
2026-09-01 05:00 am 1.3------ N/A-
2026-09-01 04:50 am 1.3------ N/A-
2026-09-01 04:40 am 1.0------ N/A-
2026-09-01 04:30 am 1.3------ N/A-
2026-09-01 04:20 am 1.0------ N/A-
2026-09-01 04:10 am 1.0------ N/A-
2026-09-01 04:00 am 1.0------ N/A-
2026-09-01 03:50 am 1.0------ N/A-
2026-09-01 03:40 am 1.0------ N/A-
2026-09-01 03:30 am 1.0------ N/A-
2026-09-01 03:20 am 0.7------ N/A-
2026-09-01 03:10 am 0.7------ N/A-
2026-09-01 03:00 am 1.0------ N/A-
2026-09-01 02:50 am 1.0------ N/A-
2026-09-01 02:40 am 1.0------ N/A-
2026-09-01 02:30 am 1.0------ N/A-
2026-09-01 02:20 am 1.0------ N/A-
2026-09-01 02:10 am 0.7------ N/A-
2026-09-01 02:00 am 0.7------ N/A-
2026-09-01 01:50 am 0.7------ N/A-
2026-09-01 01:40 am 0.7------ N/A-
2026-09-01 01:30 am 0.7------ N/A-
2026-09-01 01:20 am 0.7------ N/A-
2026-09-01 01:10 am 0.7------ N/A-
2026-09-01 01:00 am 0.7------ N/A-
2026-09-01 12:50 am 0.7------ N/A-